sensor_id;sensor_type;location;lat;lon;timestamp;P1;durP1;ratioP1;P2;durP2;ratioP2
35606;SDS011;21729;58.392;15.656;2022-07-30T00:02:20;0.90;;;0.90;;
35606;SDS011;21729;58.392;15.656;2022-07-30T00:04:49;0.93;;;0.87;;
35606;SDS011;21729;58.392;15.656;2022-07-30T00:07:16;1.00;;;0.80;;
35606;SDS011;21729;58.392;15.656;2022-07-30T00:09:43;0.80;;;0.80;;
35606;SDS011;21729;58.392;15.656;2022-07-30T00:12:10;0.80;;;0.80;;
35606;SDS011;21729;58.392;15.656;2022-07-30T00:14:37;0.90;;;0.90;;
35606;SDS011;21729;58.392;15.656;2022-07-30T00:17:04;1.25;;;0.80;;
35606;SDS011;21729;58.392;15.656;2022-07-30T00:19:31;0.90;;;0.90;;
35606;SDS011;21729;58.392;15.656;2022-07-30T00:22:00;0.80;;;0.80;;
35606;SDS011;21729;58.392;15.656;2022-07-30T00:24:27;1.23;;;0.85;;
35606;SDS011;21729;58.392;15.656;2022-07-30T00:26:54;1.10;;;0.90;;
35606;SDS011;21729;58.392;15.656;2022-07-30T00:29:21;0.80;;;0.80;;
35606;SDS011;21729;58.392;15.656;2022-07-30T00:31:49;1.38;;;0.80;;
35606;SDS011;21729;58.392;15.656;2022-07-30T00:34:16;1.30;;;0.90;;
35606;SDS011;21729;58.392;15.656;2022-07-30T00:36:43;1.77;;;1.05;;
35606;SDS011;21729;58.392;15.656;2022-07-30T00:39:12;0.90;;;0.90;;
35606;SDS011;21729;58.392;15.656;2022-07-30T00:41:52;1.05;;;0.80;;
35606;SDS011;21729;58.392;15.656;2022-07-30T00:44:24;1.00;;;0.90;;
35606;SDS011;21729;58.392;15.656;2022-07-30T00:46:51;1.45;;;0.93;;
35606;SDS011;21729;58.392;15.656;2022-07-30T00:49:19;0.80;;;0.80;;
35606;SDS011;21729;58.392;15.656;2022-07-30T00:51:46;1.38;;;0.90;;
35606;SDS011;21729;58.392;15.656;2022-07-30T00:54:15;0.90;;;0.90;;
35606;SDS011;21729;58.392;15.656;2022-07-30T00:56:42;1.00;;;0.90;;
35606;SDS011;21729;58.392;15.656;2022-07-30T00:59:09;1.40;;;0.87;;
35606;SDS011;21729;58.392;15.656;2022-07-30T01:01:36;0.97;;;0.80;;
35606;SDS011;21729;58.392;15.656;2022-07-30T01:04:03;0.98;;;0.90;;
35606;SDS011;21729;58.392;15.656;2022-07-30T01:06:35;1.17;;;1.05;;
35606;SDS011;21729;58.392;15.656;2022-07-30T01:09:03;1.33;;;1.10;;
35606;SDS011;21729;58.392;15.656;2022-07-30T01:11:32;1.13;;;0.90;;
35606;SDS011;21729;58.392;15.656;2022-07-30T01:14:02;1.00;;;0.90;;
35606;SDS011;21729;58.392;15.656;2022-07-30T01:16:30;0.90;;;0.90;;
35606;SDS011;21729;58.392;15.656;2022-07-30T01:18:57;0.80;;;0.80;;
35606;SDS011;21729;58.392;15.656;2022-07-30T01:21:45;1.05;;;1.00;;
35606;SDS011;21729;58.392;15.656;2022-07-30T01:24:19;1.40;;;0.90;;
35606;SDS011;21729;58.392;15.656;2022-07-30T01:26:54;1.65;;;0.93;;
35606;SDS011;21729;58.392;15.656;2022-07-30T01:29:22;1.52;;;1.08;;
35606;SDS011;21729;58.392;15.656;2022-07-30T01:31:50;2.10;;;1.08;;
35606;SDS011;21729;58.392;15.656;2022-07-30T01:34:23;0.82;;;0.80;;
35606;SDS011;21729;58.392;15.656;2022-07-30T01:36:53;0.98;;;0.82;;
35606;SDS011;21729;58.392;15.656;2022-07-30T01:39:22;0.90;;;0.90;;
35606;SDS011;21729;58.392;15.656;2022-07-30T01:41:53;0.95;;;0.95;;
35606;SDS011;21729;58.392;15.656;2022-07-30T01:44:22;1.08;;;1.00;;
35606;SDS011;21729;58.392;15.656;2022-07-30T01:46:51;1.00;;;1.00;;
35606;SDS011;21729;58.392;15.656;2022-07-30T01:49:19;0.90;;;0.90;;
35606;SDS011;21729;58.392;15.656;2022-07-30T01:51:48;0.90;;;0.90;;
35606;SDS011;21729;58.392;15.656;2022-07-30T01:54:16;1.20;;;1.10;;
35606;SDS011;21729;58.392;15.656;2022-07-30T01:56:45;1.30;;;1.20;;
35606;SDS011;21729;58.392;15.656;2022-07-30T01:59:17;1.13;;;1.00;;
35606;SDS011;21729;58.392;15.656;2022-07-30T02:01:46;1.20;;;1.13;;
35606;SDS011;21729;58.392;15.656;2022-07-30T02:04:13;1.05;;;0.95;;
35606;SDS011;21729;58.392;15.656;2022-07-30T02:06:41;1.25;;;1.15;;
35606;SDS011;21729;58.392;15.656;2022-07-30T02:09:12;1.70;;;1.08;;
35606;SDS011;21729;58.392;15.656;2022-07-30T02:11:44;1.30;;;1.00;;
35606;SDS011;21729;58.392;15.656;2022-07-30T02:14:46;1.55;;;1.10;;
35606;SDS011;21729;58.392;15.656;2022-07-30T02:17:17;1.65;;;1.10;;
35606;SDS011;21729;58.392;15.656;2022-07-30T02:19:48;1.42;;;1.10;;
35606;SDS011;21729;58.392;15.656;2022-07-30T02:22:19;1.20;;;1.05;;
35606;SDS011;21729;58.392;15.656;2022-07-30T02:24:48;1.25;;;1.15;;
35606;SDS011;21729;58.392;15.656;2022-07-30T02:27:20;1.40;;;1.00;;
35606;SDS011;21729;58.392;15.656;2022-07-30T02:29:52;1.08;;;1.08;;
35606;SDS011;21729;58.392;15.656;2022-07-30T02:32:22;1.20;;;1.13;;
35606;SDS011;21729;58.392;15.656;2022-07-30T02:35:00;1.23;;;1.13;;
35606;SDS011;21729;58.392;15.656;2022-07-30T02:37:34;1.80;;;1.30;;
35606;SDS011;21729;58.392;15.656;2022-07-30T02:40:03;1.80;;;1.10;;
35606;SDS011;21729;58.392;15.656;2022-07-30T02:42:31;1.38;;;1.30;;
35606;SDS011;21729;58.392;15.656;2022-07-30T02:45:00;1.77;;;1.20;;
35606;SDS011;21729;58.392;15.656;2022-07-30T02:47:28;1.10;;;1.10;;
35606;SDS011;21729;58.392;15.656;2022-07-30T02:49:57;1.52;;;1.10;;
35606;SDS011;21729;58.392;15.656;2022-07-30T02:52:25;1.75;;;1.30;;
35606;SDS011;21729;58.392;15.656;2022-07-30T02:54:53;1.45;;;1.35;;
35606;SDS011;21729;58.392;15.656;2022-07-30T02:57:22;1.30;;;1.20;;
35606;SDS011;21729;58.392;15.656;2022-07-30T02:59:50;1.30;;;1.10;;
35606;SDS011;21729;58.392;15.656;2022-07-30T03:02:22;1.30;;;1.20;;
35606;SDS011;21729;58.392;15.656;2022-07-30T03:04:49;1.25;;;1.20;;
35606;SDS011;21729;58.392;15.656;2022-07-30T03:07:19;1.10;;;1.10;;
35606;SDS011;21729;58.392;15.656;2022-07-30T03:09:47;1.70;;;1.30;;
35606;SDS011;21729;58.392;15.656;2022-07-30T03:12:16;1.30;;;1.20;;
35606;SDS011;21729;58.392;15.656;2022-07-30T03:14:45;1.30;;;1.20;;
35606;SDS011;21729;58.392;15.656;2022-07-30T03:17:12;2.00;;;1.10;;
35606;SDS011;21729;58.392;15.656;2022-07-30T03:19:43;1.42;;;1.10;;
35606;SDS011;21729;58.392;15.656;2022-07-30T03:22:13;1.38;;;1.17;;
35606;SDS011;21729;58.392;15.656;2022-07-30T03:24:42;1.20;;;1.10;;
35606;SDS011;21729;58.392;15.656;2022-07-30T03:27:10;1.35;;;1.25;;
35606;SDS011;21729;58.392;15.656;2022-07-30T03:29:38;1.58;;;1.30;;
35606;SDS011;21729;58.392;15.656;2022-07-30T03:32:07;1.23;;;1.13;;
35606;SDS011;21729;58.392;15.656;2022-07-30T03:34:35;1.30;;;1.20;;
35606;SDS011;21729;58.392;15.656;2022-07-30T03:37:04;1.50;;;1.40;;
35606;SDS011;21729;58.392;15.656;2022-07-30T03:39:32;1.30;;;1.17;;
35606;SDS011;21729;58.392;15.656;2022-07-30T03:42:01;1.48;;;1.38;;
35606;SDS011;21729;58.392;15.656;2022-07-30T03:44:29;1.27;;;1.17;;
35606;SDS011;21729;58.392;15.656;2022-07-30T03:46:58;1.25;;;1.20;;
35606;SDS011;21729;58.392;15.656;2022-07-30T03:49:26;1.63;;;1.30;;
35606;SDS011;21729;58.392;15.656;2022-07-30T03:51:54;1.30;;;1.20;;
35606;SDS011;21729;58.392;15.656;2022-07-30T03:54:23;1.27;;;1.15;;
35606;SDS011;21729;58.392;15.656;2022-07-30T03:56:51;1.30;;;1.20;;
35606;SDS011;21729;58.392;15.656;2022-07-30T03:59:18;1.02;;;1.02;;
35606;SDS011;21729;58.392;15.656;2022-07-30T04:01:45;1.33;;;1.23;;
35606;SDS011;21729;58.392;15.656;2022-07-30T04:04:12;1.38;;;1.27;;
35606;SDS011;21729;58.392;15.656;2022-07-30T04:06:39;1.27;;;1.20;;
35606;SDS011;21729;58.392;15.656;2022-07-30T04:09:07;1.20;;;1.10;;
35606;SDS011;21729;58.392;15.656;2022-07-30T04:11:37;1.45;;;1.30;;
35606;SDS011;21729;58.392;15.656;2022-07-30T04:14:04;1.15;;;1.10;;
35606;SDS011;21729;58.392;15.656;2022-07-30T04:16:34;1.40;;;1.30;;
35606;SDS011;21729;58.392;15.656;2022-07-30T04:19:07;1.20;;;1.10;;
35606;SDS011;21729;58.392;15.656;2022-07-30T04:21:40;1.83;;;1.10;;
35606;SDS011;21729;58.392;15.656;2022-07-30T04:24:09;1.70;;;1.30;;
35606;SDS011;21729;58.392;15.656;2022-07-30T04:26:39;1.42;;;1.13;;
35606;SDS011;21729;58.392;15.656;2022-07-30T04:29:08;1.80;;;1.00;;
35606;SDS011;21729;58.392;15.656;2022-07-30T04:31:36;1.30;;;1.20;;
35606;SDS011;21729;58.392;15.656;2022-07-30T04:34:03;1.20;;;1.08;;
35606;SDS011;21729;58.392;15.656;2022-07-30T04:36:31;1.73;;;1.30;;
35606;SDS011;21729;58.392;15.656;2022-07-30T04:38:58;1.15;;;1.05;;
35606;SDS011;21729;58.392;15.656;2022-07-30T04:41:26;1.63;;;1.10;;
35606;SDS011;21729;58.392;15.656;2022-07-30T04:43:54;1.20;;;1.10;;
35606;SDS011;21729;58.392;15.656;2022-07-30T04:46:22;0.95;;;0.95;;
35606;SDS011;21729;58.392;15.656;2022-07-30T04:48:49;1.00;;;0.90;;
35606;SDS011;21729;58.392;15.656;2022-07-30T04:51:19;0.90;;;0.90;;
35606;SDS011;21729;58.392;15.656;2022-07-30T04:53:49;1.27;;;0.98;;
35606;SDS011;21729;58.392;15.656;2022-07-30T04:56:18;1.42;;;0.95;;
35606;SDS011;21729;58.392;15.656;2022-07-30T04:58:47;1.25;;;1.15;;
35606;SDS011;21729;58.392;15.656;2022-07-30T05:01:16;1.52;;;1.20;;
35606;SDS011;21729;58.392;15.656;2022-07-30T05:03:47;0.90;;;0.90;;
35606;SDS011;21729;58.392;15.656;2022-07-30T05:06:16;0.98;;;0.90;;
35606;SDS011;21729;58.392;15.656;2022-07-30T05:08:44;1.88;;;1.20;;
35606;SDS011;21729;58.392;15.656;2022-07-30T05:11:12;1.10;;;1.00;;
35606;SDS011;21729;58.392;15.656;2022-07-30T05:13:40;1.75;;;1.10;;
35606;SDS011;21729;58.392;15.656;2022-07-30T05:16:08;1.42;;;1.17;;
35606;SDS011;21729;58.392;15.656;2022-07-30T05:18:37;1.20;;;1.10;;
35606;SDS011;21729;58.392;15.656;2022-07-30T05:21:04;1.40;;;0.90;;
35606;SDS011;21729;58.392;15.656;2022-07-30T05:23:31;1.00;;;0.90;;
35606;SDS011;21729;58.392;15.656;2022-07-30T05:26:00;1.40;;;1.00;;
35606;SDS011;21729;58.392;15.656;2022-07-30T05:28:28;1.30;;;1.08;;
35606;SDS011;21729;58.392;15.656;2022-07-30T05:30:55;0.85;;;0.85;;
35606;SDS011;21729;58.392;15.656;2022-07-30T05:33:22;1.80;;;1.15;;
35606;SDS011;21729;58.392;15.656;2022-07-30T05:35:51;1.65;;;0.90;;
35606;SDS011;21729;58.392;15.656;2022-07-30T05:38:18;0.80;;;0.80;;
35606;SDS011;21729;58.392;15.656;2022-07-30T05:40:45;0.70;;;0.70;;
35606;SDS011;21729;58.392;15.656;2022-07-30T05:43:12;0.87;;;0.87;;
35606;SDS011;21729;58.392;15.656;2022-07-30T05:45:39;0.80;;;0.80;;
35606;SDS011;21729;58.392;15.656;2022-07-30T05:48:06;0.77;;;0.77;;
35606;SDS011;21729;58.392;15.656;2022-07-30T05:50:33;0.70;;;0.70;;
35606;SDS011;21729;58.392;15.656;2022-07-30T05:53:02;1.25;;;0.75;;
35606;SDS011;21729;58.392;15.656;2022-07-30T05:55:29;0.93;;;0.60;;
35606;SDS011;21729;58.392;15.656;2022-07-30T05:57:56;0.90;;;0.60;;
35606;SDS011;21729;58.392;15.656;2022-07-30T06:00:23;1.02;;;0.82;;
35606;SDS011;21729;58.392;15.656;2022-07-30T06:02:50;1.33;;;0.80;;
35606;SDS011;21729;58.392;15.656;2022-07-30T06:05:17;1.33;;;0.80;;
35606;SDS011;21729;58.392;15.656;2022-07-30T06:07:45;0.60;;;0.60;;
35606;SDS011;21729;58.392;15.656;2022-07-30T06:10:13;1.50;;;0.70;;
35606;SDS011;21729;58.392;15.656;2022-07-30T06:12:40;0.77;;;0.70;;
35606;SDS011;21729;58.392;15.656;2022-07-30T06:15:08;0.80;;;0.70;;
35606;SDS011;21729;58.392;15.656;2022-07-30T06:17:39;1.02;;;0.77;;
35606;SDS011;21729;58.392;15.656;2022-07-30T06:20:08;0.65;;;0.57;;
35606;SDS011;21729;58.392;15.656;2022-07-30T06:22:36;0.73;;;0.60;;
35606;SDS011;21729;58.392;15.656;2022-07-30T06:25:03;1.23;;;0.80;;
35606;SDS011;21729;58.392;15.656;2022-07-30T06:27:32;0.68;;;0.68;;
35606;SDS011;21729;58.392;15.656;2022-07-30T06:30:00;0.65;;;0.63;;
35606;SDS011;21729;58.392;15.656;2022-07-30T06:32:28;0.63;;;0.63;;
35606;SDS011;21729;58.392;15.656;2022-07-30T06:34:55;0.60;;;0.60;;
35606;SDS011;21729;58.392;15.656;2022-07-30T06:37:22;1.40;;;0.70;;
35606;SDS011;21729;58.392;15.656;2022-07-30T06:39:49;1.42;;;0.60;;
35606;SDS011;21729;58.392;15.656;2022-07-30T06:42:17;0.63;;;0.63;;
35606;SDS011;21729;58.392;15.656;2022-07-30T06:44:45;0.60;;;0.60;;
35606;SDS011;21729;58.392;15.656;2022-07-30T06:47:12;0.90;;;0.70;;
35606;SDS011;21729;58.392;15.656;2022-07-30T06:49:44;0.80;;;0.60;;
35606;SDS011;21729;58.392;15.656;2022-07-30T06:52:11;1.83;;;0.70;;
35606;SDS011;21729;58.392;15.656;2022-07-30T06:54:38;0.90;;;0.80;;
35606;SDS011;21729;58.392;15.656;2022-07-30T06:57:05;1.02;;;0.73;;
35606;SDS011;21729;58.392;15.656;2022-07-30T06:59:32;1.00;;;0.60;;
35606;SDS011;21729;58.392;15.656;2022-07-30T07:02:01;0.70;;;0.70;;
35606;SDS011;21729;58.392;15.656;2022-07-30T07:04:28;0.60;;;0.60;;
35606;SDS011;21729;58.392;15.656;2022-07-30T07:07:01;0.60;;;0.60;;
35606;SDS011;21729;58.392;15.656;2022-07-30T07:09:28;1.30;;;0.70;;
35606;SDS011;21729;58.392;15.656;2022-07-30T07:11:55;0.70;;;0.70;;
35606;SDS011;21729;58.392;15.656;2022-07-30T07:14:23;1.40;;;0.70;;
35606;SDS011;21729;58.392;15.656;2022-07-30T07:16:50;0.75;;;0.75;;
35606;SDS011;21729;58.392;15.656;2022-07-30T07:19:19;0.77;;;0.77;;
35606;SDS011;21729;58.392;15.656;2022-07-30T07:21:46;0.60;;;0.60;;
35606;SDS011;21729;58.392;15.656;2022-07-30T07:24:13;0.88;;;0.70;;
35606;SDS011;21729;58.392;15.656;2022-07-30T07:26:40;1.70;;;0.80;;
35606;SDS011;21729;58.392;15.656;2022-07-30T07:29:07;0.70;;;0.70;;
35606;SDS011;21729;58.392;15.656;2022-07-30T07:31:34;0.70;;;0.60;;
35606;SDS011;21729;58.392;15.656;2022-07-30T07:34:02;0.82;;;0.70;;
35606;SDS011;21729;58.392;15.656;2022-07-30T07:36:31;1.35;;;0.80;;
35606;SDS011;21729;58.392;15.656;2022-07-30T07:38:59;1.00;;;0.70;;
35606;SDS011;21729;58.392;15.656;2022-07-30T07:41:26;0.70;;;0.63;;
35606;SDS011;21729;58.392;15.656;2022-07-30T07:43:53;0.70;;;0.68;;
35606;SDS011;21729;58.392;15.656;2022-07-30T07:46:20;0.68;;;0.60;;
35606;SDS011;21729;58.392;15.656;2022-07-30T07:48:47;0.60;;;0.60;;
35606;SDS011;21729;58.392;15.656;2022-07-30T07:51:14;1.50;;;0.60;;
35606;SDS011;21729;58.392;15.656;2022-07-30T07:53:43;0.80;;;0.77;;
35606;SDS011;21729;58.392;15.656;2022-07-30T07:56:10;0.90;;;0.60;;
35606;SDS011;21729;58.392;15.656;2022-07-30T07:58:38;1.08;;;0.70;;
35606;SDS011;21729;58.392;15.656;2022-07-30T08:01:05;1.15;;;0.70;;
35606;SDS011;21729;58.392;15.656;2022-07-30T08:03:32;0.87;;;0.60;;
35606;SDS011;21729;58.392;15.656;2022-07-30T08:05:59;1.02;;;0.60;;
35606;SDS011;21729;58.392;15.656;2022-07-30T08:08:26;0.60;;;0.60;;
35606;SDS011;21729;58.392;15.656;2022-07-30T08:10:54;0.75;;;0.50;;
35606;SDS011;21729;58.392;15.656;2022-07-30T08:13:22;0.70;;;0.70;;
35606;SDS011;21729;58.392;15.656;2022-07-30T08:15:49;0.60;;;0.60;;
35606;SDS011;21729;58.392;15.656;2022-07-30T08:18:16;1.35;;;0.70;;
35606;SDS011;21729;58.392;15.656;2022-07-30T08:20:43;1.10;;;0.52;;
35606;SDS011;21729;58.392;15.656;2022-07-30T08:23:10;0.60;;;0.60;;
35606;SDS011;21729;58.392;15.656;2022-07-30T08:25:37;0.60;;;0.60;;
35606;SDS011;21729;58.392;15.656;2022-07-30T08:28:05;1.33;;;0.70;;
35606;SDS011;21729;58.392;15.656;2022-07-30T08:30:32;0.60;;;0.60;;
35606;SDS011;21729;58.392;15.656;2022-07-30T08:32:59;3.33;;;0.73;;
35606;SDS011;21729;58.392;15.656;2022-07-30T08:35:26;0.80;;;0.70;;
35606;SDS011;21729;58.392;15.656;2022-07-30T08:37:54;0.70;;;0.60;;
35606;SDS011;21729;58.392;15.656;2022-07-30T08:40:21;0.95;;;0.52;;
35606;SDS011;21729;58.392;15.656;2022-07-30T08:42:51;1.60;;;0.77;;
35606;SDS011;21729;58.392;15.656;2022-07-30T08:45:20;0.70;;;0.70;;
35606;SDS011;21729;58.392;15.656;2022-07-30T08:47:48;0.60;;;0.60;;
35606;SDS011;21729;58.392;15.656;2022-07-30T08:50:17;1.02;;;0.80;;
35606;SDS011;21729;58.392;15.656;2022-07-30T08:52:44;1.40;;;0.60;;
35606;SDS011;21729;58.392;15.656;2022-07-30T08:55:13;0.80;;;0.75;;
35606;SDS011;21729;58.392;15.656;2022-07-30T08:57:41;1.75;;;0.75;;
35606;SDS011;21729;58.392;15.656;2022-07-30T09:00:09;0.90;;;0.63;;
35606;SDS011;21729;58.392;15.656;2022-07-30T09:02:39;0.60;;;0.60;;
35606;SDS011;21729;58.392;15.656;2022-07-30T09:05:07;1.23;;;0.70;;
35606;SDS011;21729;58.392;15.656;2022-07-30T09:07:35;1.02;;;0.70;;
35606;SDS011;21729;58.392;15.656;2022-07-30T09:10:03;0.60;;;0.60;;
35606;SDS011;21729;58.392;15.656;2022-07-30T09:12:32;0.80;;;0.60;;
35606;SDS011;21729;58.392;15.656;2022-07-30T09:15:00;0.60;;;0.60;;
35606;SDS011;21729;58.392;15.656;2022-07-30T09:17:41;0.90;;;0.40;;
35606;SDS011;21729;58.392;15.656;2022-07-30T09:20:14;0.50;;;0.50;;
35606;SDS011;21729;58.392;15.656;2022-07-30T09:22:41;0.63;;;0.63;;
35606;SDS011;21729;58.392;15.656;2022-07-30T09:25:09;0.70;;;0.70;;
35606;SDS011;21729;58.392;15.656;2022-07-30T09:27:43;1.63;;;0.90;;
35606;SDS011;21729;58.392;15.656;2022-07-30T09:30:12;0.80;;;0.80;;
35606;SDS011;21729;58.392;15.656;2022-07-30T09:32:48;0.75;;;0.70;;
35606;SDS011;21729;58.392;15.656;2022-07-30T09:35:17;1.42;;;0.52;;
35606;SDS011;21729;58.392;15.656;2022-07-30T09:37:44;0.60;;;0.60;;
35606;SDS011;21729;58.392;15.656;2022-07-30T09:40:14;0.80;;;0.80;;
35606;SDS011;21729;58.392;15.656;2022-07-30T09:42:43;0.70;;;0.70;;
35606;SDS011;21729;58.392;15.656;2022-07-30T09:45:11;0.60;;;0.60;;
35606;SDS011;21729;58.392;15.656;2022-07-30T09:47:40;0.70;;;0.60;;
35606;SDS011;21729;58.392;15.656;2022-07-30T09:50:11;0.80;;;0.70;;
35606;SDS011;21729;58.392;15.656;2022-07-30T09:52:40;0.60;;;0.60;;
35606;SDS011;21729;58.392;15.656;2022-07-30T09:55:08;1.23;;;0.80;;
35606;SDS011;21729;58.392;15.656;2022-07-30T09:57:37;0.60;;;0.60;;
35606;SDS011;21729;58.392;15.656;2022-07-30T10:00:21;0.75;;;0.73;;
35606;SDS011;21729;58.392;15.656;2022-07-30T10:02:49;0.70;;;0.60;;
35606;SDS011;21729;58.392;15.656;2022-07-30T10:05:18;0.77;;;0.77;;
35606;SDS011;21729;58.392;15.656;2022-07-30T10:07:46;0.80;;;0.80;;
35606;SDS011;21729;58.392;15.656;2022-07-30T10:10:15;0.70;;;0.70;;
35606;SDS011;21729;58.392;15.656;2022-07-30T10:12:43;0.70;;;0.70;;
35606;SDS011;21729;58.392;15.656;2022-07-30T10:15:12;1.15;;;0.70;;
35606;SDS011;21729;58.392;15.656;2022-07-30T10:17:40;0.80;;;0.70;;
35606;SDS011;21729;58.392;15.656;2022-07-30T10:20:08;0.63;;;0.63;;
35606;SDS011;21729;58.392;15.656;2022-07-30T10:22:37;0.67;;;0.67;;
35606;SDS011;21729;58.392;15.656;2022-07-30T10:25:05;0.70;;;0.70;;
35606;SDS011;21729;58.392;15.656;2022-07-30T10:27:32;1.80;;;0.70;;
35606;SDS011;21729;58.392;15.656;2022-07-30T10:30:00;0.70;;;0.70;;
35606;SDS011;21729;58.392;15.656;2022-07-30T10:32:28;0.60;;;0.60;;
35606;SDS011;21729;58.392;15.656;2022-07-30T10:34:56;0.60;;;0.60;;
35606;SDS011;21729;58.392;15.656;2022-07-30T10:37:25;0.70;;;0.70;;
35606;SDS011;21729;58.392;15.656;2022-07-30T10:39:55;1.50;;;0.70;;
35606;SDS011;21729;58.392;15.656;2022-07-30T10:42:33;1.52;;;0.68;;
35606;SDS011;21729;58.392;15.656;2022-07-30T10:45:16;0.80;;;0.70;;
35606;SDS011;21729;58.392;15.656;2022-07-30T10:47:47;1.30;;;0.60;;
35606;SDS011;21729;58.392;15.656;2022-07-30T10:50:16;0.70;;;0.52;;
35606;SDS011;21729;58.392;15.656;2022-07-30T10:52:45;1.10;;;0.60;;
35606;SDS011;21729;58.392;15.656;2022-07-30T10:55:16;1.63;;;0.60;;
35606;SDS011;21729;58.392;15.656;2022-07-30T10:57:58;1.63;;;0.70;;
35606;SDS011;21729;58.392;15.656;2022-07-30T11:00:26;0.70;;;0.52;;
35606;SDS011;21729;58.392;15.656;2022-07-30T11:03:10;0.90;;;0.60;;
35606;SDS011;21729;58.392;15.656;2022-07-30T11:05:48;0.80;;;0.50;;
35606;SDS011;21729;58.392;15.656;2022-07-30T11:08:33;0.82;;;0.70;;
35606;SDS011;21729;58.392;15.656;2022-07-30T11:11:05;0.70;;;0.70;;
35606;SDS011;21729;58.392;15.656;2022-07-30T11:14:13;0.50;;;0.50;;
35606;SDS011;21729;58.392;15.656;2022-07-30T11:16:58;0.80;;;0.70;;
35606;SDS011;21729;58.392;15.656;2022-07-30T11:19:26;0.50;;;0.50;;
35606;SDS011;21729;58.392;15.656;2022-07-30T11:24:50;0.60;;;0.60;;
35606;SDS011;21729;58.392;15.656;2022-07-30T11:27:35;0.57;;;0.52;;
35606;SDS011;21729;58.392;15.656;2022-07-30T11:30:03;0.63;;;0.60;;
35606;SDS011;21729;58.392;15.656;2022-07-30T11:32:52;0.60;;;0.60;;
35606;SDS011;21729;58.392;15.656;2022-07-30T11:35:20;1.33;;;0.75;;
35606;SDS011;21729;58.392;15.656;2022-07-30T11:38:02;1.90;;;0.70;;
35606;SDS011;21729;58.392;15.656;2022-07-30T11:40:31;0.70;;;0.70;;
35606;SDS011;21729;58.392;15.656;2022-07-30T11:43:17;0.60;;;0.60;;
35606;SDS011;21729;58.392;15.656;2022-07-30T11:45:46;1.10;;;0.60;;
35606;SDS011;21729;58.392;15.656;2022-07-30T11:48:15;0.88;;;0.70;;
35606;SDS011;21729;58.392;15.656;2022-07-30T11:50:44;1.23;;;0.70;;
35606;SDS011;21729;58.392;15.656;2022-07-30T11:53:16;0.60;;;0.60;;
35606;SDS011;21729;58.392;15.656;2022-07-30T11:55:44;1.20;;;0.73;;
35606;SDS011;21729;58.392;15.656;2022-07-30T11:58:23;1.85;;;0.63;;
35606;SDS011;21729;58.392;15.656;2022-07-30T12:00:52;0.63;;;0.63;;
35606;SDS011;21729;58.392;15.656;2022-07-30T12:03:21;0.65;;;0.63;;
35606;SDS011;21729;58.392;15.656;2022-07-30T12:05:50;0.53;;;0.53;;
35606;SDS011;21729;58.392;15.656;2022-07-30T12:08:18;0.95;;;0.60;;
35606;SDS011;21729;58.392;15.656;2022-07-30T12:10:53;0.70;;;0.70;;
35606;SDS011;21729;58.392;15.656;2022-07-30T12:13:24;0.80;;;0.80;;
35606;SDS011;21729;58.392;15.656;2022-07-30T12:15:51;0.60;;;0.60;;
35606;SDS011;21729;58.392;15.656;2022-07-30T12:18:22;0.73;;;0.68;;
35606;SDS011;21729;58.392;15.656;2022-07-30T12:20:53;0.60;;;0.60;;
35606;SDS011;21729;58.392;15.656;2022-07-30T12:23:24;0.67;;;0.67;;
35606;SDS011;21729;58.392;15.656;2022-07-30T12:25:53;1.10;;;0.70;;
35606;SDS011;21729;58.392;15.656;2022-07-30T12:28:21;1.00;;;0.70;;
35606;SDS011;21729;58.392;15.656;2022-07-30T12:30:51;0.60;;;0.60;;
35606;SDS011;21729;58.392;15.656;2022-07-30T12:33:19;1.02;;;0.70;;
35606;SDS011;21729;58.392;15.656;2022-07-30T12:35:48;0.65;;;0.60;;
35606;SDS011;21729;58.392;15.656;2022-07-30T12:38:16;0.77;;;0.70;;
35606;SDS011;21729;58.392;15.656;2022-07-30T12:40:51;0.75;;;0.75;;
35606;SDS011;21729;58.392;15.656;2022-07-30T12:46:09;0.70;;;0.70;;
35606;SDS011;21729;58.392;15.656;2022-07-30T12:48:37;0.60;;;0.60;;
35606;SDS011;21729;58.392;15.656;2022-07-30T12:51:13;0.60;;;0.60;;
35606;SDS011;21729;58.392;15.656;2022-07-30T12:53:40;0.60;;;0.60;;
35606;SDS011;21729;58.392;15.656;2022-07-30T12:56:10;0.82;;;0.70;;
35606;SDS011;21729;58.392;15.656;2022-07-30T12:58:38;0.65;;;0.65;;
35606;SDS011;21729;58.392;15.656;2022-07-30T13:01:06;0.60;;;0.60;;
35606;SDS011;21729;58.392;15.656;2022-07-30T13:03:35;0.73;;;0.60;;
35606;SDS011;21729;58.392;15.656;2022-07-30T13:06:13;0.60;;;0.50;;
35606;SDS011;21729;58.392;15.656;2022-07-30T13:08:51;0.80;;;0.80;;
35606;SDS011;21729;58.392;15.656;2022-07-30T13:11:21;0.70;;;0.70;;
35606;SDS011;21729;58.392;15.656;2022-07-30T13:13:49;1.30;;;0.60;;
35606;SDS011;21729;58.392;15.656;2022-07-30T13:16:17;0.50;;;0.50;;
35606;SDS011;21729;58.392;15.656;2022-07-30T13:18:47;1.50;;;0.80;;
35606;SDS011;21729;58.392;15.656;2022-07-30T13:21:16;0.93;;;0.70;;
35606;SDS011;21729;58.392;15.656;2022-07-30T13:23:44;0.87;;;0.60;;
35606;SDS011;21729;58.392;15.656;2022-07-30T13:26:11;1.92;;;0.70;;
35606;SDS011;21729;58.392;15.656;2022-07-30T13:28:38;0.80;;;0.70;;
35606;SDS011;21729;58.392;15.656;2022-07-30T13:31:05;0.70;;;0.70;;
35606;SDS011;21729;58.392;15.656;2022-07-30T13:33:33;0.60;;;0.60;;
35606;SDS011;21729;58.392;15.656;2022-07-30T13:36:02;0.90;;;0.77;;
35606;SDS011;21729;58.392;15.656;2022-07-30T13:38:30;0.70;;;0.70;;
35606;SDS011;21729;58.392;15.656;2022-07-30T13:40:57;0.60;;;0.60;;
35606;SDS011;21729;58.392;15.656;2022-07-30T13:43:25;0.88;;;0.60;;
35606;SDS011;21729;58.392;15.656;2022-07-30T13:45:52;2.60;;;0.70;;
35606;SDS011;21729;58.392;15.656;2022-07-30T13:48:19;0.67;;;0.60;;
35606;SDS011;21729;58.392;15.656;2022-07-30T13:50:47;1.70;;;0.80;;
35606;SDS011;21729;58.392;15.656;2022-07-30T13:53:15;1.10;;;0.77;;
35606;SDS011;21729;58.392;15.656;2022-07-30T13:55:43;1.25;;;0.60;;
35606;SDS011;21729;58.392;15.656;2022-07-30T13:58:10;1.38;;;0.63;;
35606;SDS011;21729;58.392;15.656;2022-07-30T14:00:37;1.40;;;0.60;;
35606;SDS011;21729;58.392;15.656;2022-07-30T14:03:05;0.90;;;0.50;;
35606;SDS011;21729;58.392;15.656;2022-07-30T14:05:35;0.60;;;0.60;;
35606;SDS011;21729;58.392;15.656;2022-07-30T14:08:04;0.52;;;0.52;;
35606;SDS011;21729;58.392;15.656;2022-07-30T14:10:33;1.08;;;0.60;;
35606;SDS011;21729;58.392;15.656;2022-07-30T14:13:01;1.80;;;0.70;;
35606;SDS011;21729;58.392;15.656;2022-07-30T14:15:29;0.70;;;0.70;;
35606;SDS011;21729;58.392;15.656;2022-07-30T14:17:57;0.60;;;0.60;;
35606;SDS011;21729;58.392;15.656;2022-07-30T14:20:25;0.60;;;0.60;;
35606;SDS011;21729;58.392;15.656;2022-07-30T14:22:52;0.60;;;0.60;;
35606;SDS011;21729;58.392;15.656;2022-07-30T14:25:19;0.50;;;0.50;;
35606;SDS011;21729;58.392;15.656;2022-07-30T14:27:48;0.80;;;0.80;;
35606;SDS011;21729;58.392;15.656;2022-07-30T14:30:15;1.00;;;0.50;;
35606;SDS011;21729;58.392;15.656;2022-07-30T14:32:43;1.00;;;0.82;;
35606;SDS011;21729;58.392;15.656;2022-07-30T14:35:10;0.70;;;0.60;;
35606;SDS011;21729;58.392;15.656;2022-07-30T14:37:38;0.63;;;0.63;;
35606;SDS011;21729;58.392;15.656;2022-07-30T14:40:06;1.20;;;0.60;;
35606;SDS011;21729;58.392;15.656;2022-07-30T14:42:35;0.88;;;0.80;;
35606;SDS011;21729;58.392;15.656;2022-07-30T14:45:06;0.65;;;0.63;;
35606;SDS011;21729;58.392;15.656;2022-07-30T14:47:34;1.30;;;0.60;;
35606;SDS011;21729;58.392;15.656;2022-07-30T14:50:01;0.77;;;0.55;;
35606;SDS011;21729;58.392;15.656;2022-07-30T14:52:29;0.80;;;0.55;;